Time;durP1;ratioP1;P1;durP2;ratioP2;P2;SDS_P1;SDS_P2;PMS_P1;PMS_P2;Temp;Humidity;BMP_temperature;BMP_pressure;BME280_temperature;BME280_humidity;BME280_pressure;Samples;Min_cycle;Max_cycle;Signal;HPM_P1;HPM_P2
2023/10/09 00:03:03;;;;;;;;;;;;;;;;;;;;;
2023/10/09 00:10:47;;;;;;;;;;;;;;;;;;;;;
2023/10/09 00:14:55;;;;;;;77.32;6.28;;;;;;;15.64;100.00;101120.84;4747920;30;20059;-85
2023/10/09 00:23:04;;;;;;;;;;;;;;;;;;;;;
2023/10/09 00:39:20;;;;;;;5.90;5.22;;;;;;;15.93;100.00;101100.09;4712503;30;20389;-84
2023/10/09 00:43:07;;;;;;;;;;;;;;;;;;;;;
2023/10/09 00:55:37;;;;;;;9.45;5.43;;;;;;;15.91;100.00;101108.25;4752775;30;20159;-85
2023/10/09 00:58:40;;;;;;;28.75;5.53;;;;;;;15.97;100.00;101114.78;4766970;29;20524;-85
2023/10/09 01:01:08;;;;;;;6.30;5.50;;;;;;;15.95;100.00;101106.94;4794170;29;20058;-85
2023/10/09 01:03:40;;;;;;;5.75;5.25;;;;;;;15.95;100.00;101093.63;4809397;29;20043;-85
2023/10/09 01:11:09;;;;;;;32.20;5.18;;;;;;;15.99;100.00;101102.13;4807143;29;20049;-85
2023/10/09 01:16:17;;;;;;;10.55;5.05;;;;;;;15.96;100.00;101105.94;4819954;29;20038;-86
2023/10/09 01:18:45;;;;;;;42.47;5.80;;;;;;;15.97;100.00;101110.31;4806183;29;20034;-85
2023/10/09 01:21:24;;;;;;;72.25;6.70;;;;;;;15.97;100.00;101120.97;4804250;29;20040;-85
2023/10/09 01:26:34;;;;;;;13.35;5.60;;;;;;;15.94;100.00;101120.44;4820252;29;20049;-83
2023/10/09 01:29:01;;;;;;;26.88;5.25;;;;;;;15.91;100.00;101126.09;4810279;29;20034;-84
2023/10/09 01:31:33;;;;;;;12.30;4.75;;;;;;;15.83;100.00;101124.25;4789821;29;20035;-84
2023/10/09 01:34:00;;;;;;;27.17;5.18;;;;;;;15.80;100.00;101128.06;4791287;29;20046;-85
2023/10/09 01:36:32;;;;;;;31.08;5.35;;;;;;;15.84;100.00;101140.09;4824059;29;20034;-85
2023/10/09 01:39:09;;;;;;;86.50;6.75;;;;;;;15.84;100.00;101139.25;4808647;29;20038;-85
2023/10/09 01:41:34;;;;;;;83.07;5.97;;;;;;;15.78;100.00;101142.56;4827974;29;20042;-84
2023/10/09 01:44:10;;;;;;;20.05;5.03;;;;;;;15.79;100.00;101145.06;4807790;29;20030;-86
2023/10/09 01:46:36;;;;;;;49.13;4.93;;;;;;;15.75;100.00;101136.53;4811295;29;20125;-85
2023/10/09 01:49:08;;;;;;;46.85;5.93;;;;;;;15.79;100.00;101128.22;4813902;29;20445;-86
2023/10/09 01:51:36;;;;;;;159.07;6.50;;;;;;;15.77;100.00;101123.06;4788206;29;20050;-86
2023/10/09 01:54:03;;;;;;;208.50;6.20;;;;;;;15.78;100.00;101114.09;4822533;29;20042;-85
2023/10/09 01:56:29;;;;;;;123.85;5.35;;;;;;;15.70;100.00;101106.88;4799107;29;20057;-86
2023/10/09 01:58:57;;;;;;;21.13;4.57;;;;;;;15.69;100.00;101105.22;4808914;29;20051;-90
2023/10/09 02:01:23;;;;;;;108.63;5.22;;;;;;;15.70;100.00;101116.72;4800463;29;20098;-92
2023/10/09 02:03:51;;;;;;;11.60;3.42;;;;;;;15.73;100.00;101127.91;4806682;29;20034;-85
2023/10/09 02:06:27;;;;;;;60.97;4.78;;;;;;;15.72;100.00;101109.38;4823810;29;20046;-84
2023/10/09 02:08:53;;;;;;;;;;;;;;;15.71;100.00;101108.56;4808523;29;20049;-85
2023/10/09 02:11:24;;;;;;;141.23;5.57;;;;;;;15.73;100.00;101106.56;4809014;29;19916;-86
2023/10/09 02:14:00;;;;;;;26.13;3.65;;;;;;;15.73;100.00;101095.06;4808564;29;20178;-85
2023/10/09 02:16:29;;;;;;;24.50;3.90;;;;;;;15.76;100.00;101105.41;4810318;29;20042;-83
2023/10/09 02:19:07;;;;;;;46.72;4.45;;;;;;;15.79;100.00;101105.06;4822670;29;20046;-85
2023/10/09 02:21:33;;;;;;;50.17;5.05;;;;;;;15.78;100.00;101100.75;4822084;29;20050;-84
2023/10/09 02:24:09;;;;;;;18.73;3.58;;;;;;;15.88;100.00;101114.75;4822722;29;20046;-86
2023/10/09 02:29:20;;;;;;;44.38;4.43;;;;;;;15.71;100.00;101105.06;4815331;29;19969;-85
2023/10/09 02:31:51;;;;;;;61.88;4.60;;;;;;;15.69;100.00;101105.22;4781670;29;20061;-85
2023/10/09 02:34:24;;;;;;;240.30;6.63;;;;;;;15.70;100.00;101106.88;4833061;29;20042;-85
2023/10/09 02:36:57;;;;;;;12.63;4.20;;;;;;;15.68;100.00;101105.38;4816630;29;20400;-85
2023/10/09 02:39:26;;;;;;;13.75;3.45;;;;;;;15.69;100.00;101086.56;4808439;29;20180;-84
2023/10/09 02:44:55;;;;;;;18.25;3.10;;;;;;;15.65;100.00;101087.03;4774806;29;20049;-85
2023/10/09 02:47:24;;;;;;;20.77;3.40;;;;;;;15.65;100.00;101085.22;4833907;29;20038;-85
2023/10/09 02:49:51;;;;;;;31.75;3.72;;;;;;;15.64;100.00;101088.88;4805115;29;20130;-86
2023/10/09 02:52:19;;;;;;;21.38;3.50;;;;;;;15.66;100.00;101094.88;4795087;29;20042;-85
2023/10/09 02:54:57;;;;;;;13.05;3.80;;;;;;;15.67;100.00;101101.88;4806638;29;20110;-86
2023/10/09 02:57:23;;;;;;;23.65;3.30;;;;;;;15.65;100.00;101093.22;4791369;29;20513;-83
2023/10/09 02:59:51;;;;;;;92.32;4.88;;;;;;;15.65;100.00;101092.38;4806047;29;20058;-84
2023/10/09 03:02:18;;;;;;;116.32;5.75;;;;;;;15.59;100.00;101088.53;4813724;29;20050;-85
2023/10/09 03:04:45;;;;;;;117.43;5.35;;;;;;;15.53;100.00;101089.19;4792652;29;20115;-85
2023/10/09 03:07:14;;;;;;;74.15;4.28;;;;;;;15.43;100.00;101084.78;4805813;29;20049;-85
2023/10/09 03:09:48;;;;;;;94.95;5.65;;;;;;;15.48;100.00;101087.81;4787231;29;20050;-84
2023/10/09 03:12:18;;;;;;;75.35;4.90;;;;;;;15.46;100.00;101081.00;4821409;29;20034;-84
2023/10/09 03:14:44;;;;;;;106.05;5.38;;;;;;;15.45;100.00;101068.69;4817970;29;20082;-83
2023/10/09 03:17:12;;;;;;;247.50;7.60;;;;;;;15.46;100.00;101070.34;4803518;29;20443;-83
2023/10/09 03:19:38;;;;;;;26.60;4.10;;;;;;;15.38;100.00;101068.47;4818573;29;20046;-84
2023/10/09 03:22:09;;;;;;;34.90;4.10;;;;;;;15.45;100.00;101069.50;4808627;29;20034;-84
2023/10/09 03:24:44;;;;;;;19.60;3.92;;;;;;;15.48;100.00;101063.84;4806594;29;20376;-85
2023/10/09 03:27:11;;;;;;;26.30;4.40;;;;;;;15.49;100.00;101062.03;4792971;29;20053;-86
2023/10/09 03:29:37;;;;;;;45.90;4.57;;;;;;;15.47;100.00;101056.88;4804320;29;20034;-84
2023/10/09 03:32:03;;;;;;;45.80;4.18;;;;;;;15.45;100.00;101058.03;4821356;29;20069;-85
2023/10/09 03:34:30;;;;;;;50.28;4.95;;;;;;;15.43;100.00;101049.34;4803707;29;20052;-83
2023/10/09 03:37:39;;;;;;;228.52;7.65;;;;;;;15.40;100.00;101047.03;4789412;29;20468;-84
2023/10/09 03:39:47;;;;;;;151.32;6.38;;;;;;;15.33;100.00;101044.16;4793252;29;20875;-84
2023/10/09 03:42:19;;;;;;;23.42;4.30;;;;;;;15.33;100.00;101045.00;4804889;29;20513;-84
2023/10/09 03:44:53;;;;;;;21.42;5.13;;;;;;;15.40;100.00;101036.38;4796427;29;20521;-81
2023/10/09 03:47:22;;;;;;;26.95;5.20;;;;;;;15.41;100.00;101030.03;4788516;29;20134;-78
2023/10/09 03:49:51;;;;;;;29.88;4.78;;;;;;;15.41;100.00;101033.53;4814721;29;20047;-84
2023/10/09 03:52:18;;;;;;;154.18;5.97;;;;;;;15.44;100.00;101040.34;4797554;29;20045;-83
2023/10/09 03:54:46;;;;;;;25.00;3.67;;;;;;;15.39;100.00;101040.84;4787018;29;20042;-82
2023/10/09 03:57:19;;;;;;;6.63;3.10;;;;;;;15.39;100.00;101038.19;4822178;29;20469;-80
2023/10/09 03:59:48;;;;;;;30.55;3.05;;;;;;;15.41;100.00;101038.03;4827032;29;20043;-80
2023/10/09 04:02:15;;;;;;;4.13;3.33;;;;;;;15.36;100.00;101042.00;4787978;29;20442;-80
2023/10/09 04:04:46;;;;;;;19.70;3.35;;;;;;;15.37;100.00;101042.81;4786150;29;20130;-79
2023/10/09 04:07:16;;;;;;;20.48;2.90;;;;;;;15.38;100.00;101041.84;4799686;29;20043;-80
2023/10/09 04:09:46;;;;;;;114.95;4.63;;;;;;;15.37;100.00;101046.34;4815753;29;20041;-80
2023/10/09 04:12:20;;;;;;;66.78;3.92;;;;;;;15.34;100.00;101044.00;4814495;29;20042;-79
2023/10/09 04:14:57;;;;;;;60.50;4.35;;;;;;;15.35;100.00;101050.97;4834349;29;20377;-80
2023/10/09 04:22:50;;;;;;;4.35;2.83;;;;;;;15.27;100.00;101039.47;4822546;29;20147;-79
2023/10/09 04:25:41;;;;;;;6.78;2.70;;;;;;;15.27;100.00;101039.47;4804566;29;20035;-80
2023/10/09 04:28:09;;;;;;;13.63;2.85;;;;;;;15.19;100.00;101030.47;4798213;29;20730;-79
2023/10/09 04:31:02;;;;;;;6.80;2.67;;;;;;;15.22;100.00;101030.16;4816974;29;20483;-81
2023/10/09 04:44:22;;;;;;;16.70;2.65;;;;;;;14.98;100.00;101021.06;4821703;29;20037;-80
2023/10/09 05:00:46;;;;;;;27.70;2.70;;;;;;;14.99;100.00;101017.41;4817616;29;20042;-80
2023/10/09 05:03:24;;;;;;;6.28;2.47;;;;;;;14.87;100.00;101034.66;4820479;29;20084;-79
2023/10/09 05:05:58;;;;;;;53.30;3.67;;;;;;;14.83;100.00;101055.41;4813712;29;20034;-81
2023/10/09 05:16:26;;;;;;;13.88;3.90;;;;;;;14.38;100.00;101062.56;4806821;29;20027;-80
2023/10/09 05:19:06;;;;;;;91.30;5.13;;;;;;;14.36;100.00;101062.72;4821041;29;20050;-81
2023/10/09 05:21:44;;;;;;;99.82;5.43;;;;;;;14.41;100.00;101066.72;4805916;29;20904;-82
2023/10/09 05:29:19;;;;;;;;;;;;;;;14.47;100.00;101074.94;4818140;29;20041;-78
2023/10/09 05:32:27;;;;;;;41.00;4.40;;;;;;;14.50;100.00;101071.13;4820246;29;20726;-80
2023/10/09 05:37:32;;;;;;;41.10;4.40;;;;;;;14.50;100.00;101068.47;4817004;29;20431;-79
2023/10/09 05:47:53;;;;;;;18.95;3.85;;;;;;;14.67;100.00;101058.75;4802077;29;20131;-80
2023/10/09 06:06:01;;;;;;;40.80;3.70;;;;;;;14.80;100.00;101084.16;4817296;29;20052;-79
2023/10/09 06:24:33;;;;;;;11.40;2.70;;;;;;;14.31;100.00;101072.13;4819105;29;20042;-79
2023/10/09 06:29:50;;;;;;;28.30;2.88;;;;;;;14.30;100.00;101070.47;4819732;29;20041;-80
2023/10/09 06:34:51;;;;;;;2.65;2.45;;;;;;;14.30;100.00;101075.78;4801815;29;20073;-78
2023/10/09 06:40:56;;;;;;;29.00;2.92;;;;;;;14.23;100.00;101076.41;4805973;29;20054;-81
2023/10/09 06:45:18;;;;;;;36.55;2.55;;;;;;;14.24;100.00;101086.03;4803250;29;19952;-81
2023/10/09 06:53:20;;;;;;;42.67;2.55;;;;;;;14.24;100.00;101098.50;4836043;29;20121;-81
2023/10/09 06:55:50;;;;;;;40.67;2.35;;;;;;;14.27;100.00;101091.06;4788498;29;20587;-78
2023/10/09 06:58:23;;;;;;;10.30;2.25;;;;;;;14.30;100.00;101094.41;4819896;29;20500;-79
2023/10/09 07:03:32;;;;;;;13.15;2.13;;;;;;;14.36;100.00;101091.13;4819966;29;20496;-79
2023/10/09 07:06:09;;;;;;;31.08;2.65;;;;;;;14.36;100.00;101088.47;4805105;29;20043;-76
2023/10/09 07:08:44;;;;;;;16.65;2.38;;;;;;;14.34;100.00;101093.94;4789414;29;20408;-77
2023/10/09 07:11:56;;;;;;;54.97;2.87;;;;;;;14.25;100.00;101093.03;4817072;29;20046;-77
2023/10/09 07:17:44;;;;;;;77.07;3.28;;;;;;;14.39;100.00;101097.00;4809198;29;20090;-77
2023/10/09 07:22:39;;;;;;;33.40;3.20;;;;;;;14.40;100.00;101081.84;4804904;29;20046;-77
2023/10/09 07:25:16;;;;;;;34.03;2.78;;;;;;;14.47;100.00;101085.56;4816612;29;20034;-77
2023/10/09 07:27:45;;;;;;;15.98;2.20;;;;;;;14.42;100.00;101087.84;4806280;29;20091;-77
2023/10/09 07:38:20;;;;;;;54.97;16.35;;;;;;;14.62;100.00;101082.38;4813161;29;20039;-77
2023/10/09 07:41:33;;;;;;;105.88;32.55;;;;;;;14.63;100.00;101086.69;4819430;29;20121;-78
2023/10/09 07:43:45;;;;;;;141.65;84.95;;;;;;;14.66;100.00;101083.72;4819195;29;20460;-77
2023/10/09 07:49:08;;;;;;;132.00;74.70;;;;;;;14.76;100.00;101097.75;4831886;29;20053;-78
2023/10/09 07:51:36;;;;;;;52.63;15.52;;;;;;;14.79;100.00;101107.28;4818840;29;20492;-77
2023/10/09 07:54:08;;;;;;;18.38;4.03;;;;;;;14.80;100.00;101100.97;4817693;29;20130;-78
2023/10/09 07:56:39;;;;;;;100.82;6.28;;;;;;;14.86;100.00;101088.84;4810373;29;20050;-77
2023/10/09 07:59:10;;;;;;;108.45;4.20;;;;;;;14.82;100.00;101084.84;4813279;29;20042;-78
2023/10/09 08:01:58;;;;;;;138.07;6.22;;;;;;;14.85;100.00;101085.38;4816976;29;20098;-78
2023/10/09 08:04:37;;;;;;;69.47;6.55;;;;;;;14.81;100.00;101085.84;4803688;29;20026;-78
2023/10/09 08:07:09;;;;;;;75.07;4.00;;;;;;;14.81;100.00;101089.31;4819428;29;20103;-77
2023/10/09 08:09:46;;;;;;;65.43;3.10;;;;;;;14.76;100.00;101094.25;4804602;29;20125;-78
2023/10/09 08:15:21;;;;;;;95.82;3.75;;;;;;;14.84;100.00;101109.47;4812248;29;20039;-78
2023/10/09 08:18:09;;;;;;;4.75;4.25;;;;;;;14.81;100.00;101110.59;4819363;29;20380;-78
2023/10/09 08:21:19;;;;;;;19.60;3.67;;;;;;;14.81;100.00;101115.13;4816512;29;20058;-78
2023/10/09 08:23:28;;;;;;;33.25;2.80;;;;;;;14.80;100.00;101124.91;4807509;29;20045;-79
2023/10/09 08:26:14;;;;;;;21.02;5.13;;;;;;;14.84;100.00;101128.09;4798595;29;20060;-79
2023/10/09 08:28:42;;;;;;;39.63;8.33;;;;;;;14.79;100.00;101130.34;4808812;29;20125;-79
2023/10/09 08:31:19;;;;;;;9.93;4.00;;;;;;;14.78;100.00;101126.03;4819251;29;20039;-78
2023/10/09 08:33:58;;;;;;;45.17;6.60;;;;;;;14.81;100.00;101123.91;4802119;29;20708;-79
2023/10/09 08:36:28;;;;;;;17.00;6.65;;;;;;;14.83;100.00;101113.09;4803684;29;20038;-78
2023/10/09 08:38:58;;;;;;;26.55;2.90;;;;;;;14.81;100.00;101102.63;4803013;29;20038;-79
2023/10/09 08:41:29;;;;;;;9.90;2.63;;;;;;;14.84;100.00;101109.47;4789428;29;20071;-79
2023/10/09 08:43:57;;;;;;;21.60;3.10;;;;;;;14.91;100.00;101120.34;4816907;29;20155;-78
2023/10/09 08:46:27;;;;;;;12.18;3.53;;;;;;;14.98;100.00;101111.56;4810386;29;20094;-79
2023/10/09 08:48:58;;;;;;;73.90;3.83;;;;;;;14.98;100.00;101110.72;4805506;29;20057;-78
2023/10/09 08:51:26;;;;;;;8.85;3.97;;;;;;;15.04;100.00;101110.09;4820547;29;20130;-79
2023/10/09 08:53:52;;;;;;;6.75;4.20;;;;;;;15.09;100.00;101106.97;4817397;29;20043;-78
2023/10/09 08:56:23;;;;;;;41.95;3.40;;;;;;;15.16;100.00;101107.97;4837595;29;20030;-79
2023/10/09 08:58:53;;;;;;;14.73;3.20;;;;;;;15.22;100.00;101110.03;4802327;29;20034;-78
2023/10/09 09:01:21;;;;;;;16.63;4.38;;;;;;;15.30;100.00;101111.91;4807119;29;20045;-79
2023/10/09 09:03:50;;;;;;;66.55;7.38;;;;;;;15.35;100.00;101116.75;4807554;29;20052;-78
2023/10/09 09:06:19;;;;;;;95.18;4.00;;;;;;;15.36;100.00;101094.44;4823546;29;20038;-78
2023/10/09 09:08:45;;;;;;;42.83;5.50;;;;;;;15.33;100.00;101103.59;4836876;29;20164;-78
2023/10/09 09:11:22;;;;;;;147.38;4.72;;;;;;;15.37;100.00;101098.75;4824680;29;20034;-78
2023/10/09 09:14:22;;;;;;;68.82;3.17;;;;;;;15.38;100.00;101111.09;4799689;29;20050;-79
2023/10/09 09:16:48;;;;;;;38.97;3.03;;;;;;;15.35;100.00;101109.56;4822170;29;20056;-79
2023/10/09 09:19:20;;;;;;;70.72;3.88;;;;;;;15.39;100.00;101112.75;4814632;29;20048;-79
2023/10/09 09:21:56;;;;;;;94.00;7.22;;;;;;;15.46;100.00;101115.63;4808476;29;20077;-78
2023/10/09 09:26:58;;;;;;;22.85;5.05;;;;;;;15.43;100.00;101106.09;4808808;29;20074;-79
2023/10/09 09:29:37;;;;;;;209.60;5.60;;;;;;;15.47;100.00;101103.97;4809017;29;20253;-79
2023/10/09 09:32:20;;;;;;;99.38;11.98;;;;;;;15.49;100.00;101097.50;4822526;29;21031;-78
2023/10/09 09:35:04;;;;;;;110.47;4.65;;;;;;;15.50;100.00;101103.66;4808392;29;20062;-78
2023/10/09 09:37:50;;;;;;;185.90;5.47;;;;;;;15.47;100.00;101094.16;4810310;29;20042;-82
2023/10/09 09:40:28;;;;;;;151.27;22.25;;;;;;;15.43;100.00;101094.63;4834348;29;20110;-83
2023/10/09 09:43:11;;;;;;;93.32;4.53;;;;;;;15.46;100.00;101091.66;4820918;29;20532;-78
2023/10/09 09:45:38;;;;;;;132.15;40.67;;;;;;;15.41;100.00;101107.28;4805282;29;20047;-78
2023/10/09 09:48:10;;;;;;;98.75;24.58;;;;;;;15.46;100.00;101118.28;4820441;29;20057;-78
2023/10/09 09:50:44;;;;;;;345.88;30.42;;;;;;;15.44;100.00;101122.94;4822752;29;20569;-79
2023/10/09 09:53:16;;;;;;;149.98;11.82;;;;;;;15.43;100.00;101118.63;4790526;29;20058;-78
2023/10/09 09:55:51;;;;;;;107.03;36.38;;;;;;;15.48;100.00;101108.31;4834232;29;20038;-79
2023/10/09 09:58:23;;;;;;;66.22;10.05;;;;;;;15.43;100.00;101100.78;4830012;29;20069;-79
2023/10/09 10:00:54;;;;;;;53.22;13.02;;;;;;;15.55;100.00;101098.69;4818655;29;20042;-78
2023/10/09 10:03:38;;;;;;;172.48;5.68;;;;;;;15.54;100.00;101102.34;4806432;29;20138;-78
2023/10/09 10:06:10;;;;;;;31.67;3.58;;;;;;;15.55;100.00;101095.16;4819157;29;20502;-78
2023/10/09 10:08:39;;;;;;;23.58;5.30;;;;;;;15.57;100.00;101099.34;4802487;29;20488;-78
2023/10/09 10:11:05;;;;;;;7.72;3.38;;;;;;;15.67;100.00;101093.88;4819731;29;20042;-78
2023/10/09 10:13:40;;;;;;;25.20;3.60;;;;;;;15.84;100.00;101100.09;4834821;29;20043;-78
2023/10/09 10:16:11;;;;;;;81.97;9.32;;;;;;;15.86;100.00;101097.28;4821562;29;20049;-80
2023/10/09 10:21:40;;;;;;;32.97;22.20;;;;;;;15.89;100.00;101086.28;4820662;29;20038;-77
2023/10/09 10:24:28;;;;;;;42.53;4.30;;;;;;;15.94;100.00;101083.94;4819899;29;20046;-77
2023/10/09 10:27:24;;;;;;;9.48;4.97;;;;;;;16.01;100.00;101075.34;4819453;29;20094;-78
2023/10/09 10:30:09;;;;;;;20.08;3.92;;;;;;;16.09;100.00;101080.66;4813903;29;20037;-77
2023/10/09 10:32:56;;;;;;;33.45;4.18;;;;;;;16.12;100.00;101078.50;4806082;29;20077;-77
2023/10/09 10:38:44;;;;;;;7.45;3.83;;;;;;;16.24;100.00;101081.66;4835194;29;20049;-78
2023/10/09 10:41:11;;;;;;;36.70;4.50;;;;;;;16.27;100.00;101075.19;4796684;29;20042;-78
2023/10/09 10:46:37;;;;;;;13.75;4.00;;;;;;;16.40;100.00;101077.34;4826384;29;20036;-78
2023/10/09 10:51:40;;;;;;;27.05;5.32;;;;;;;16.54;100.00;101075.00;4806156;29;20137;-78
2023/10/09 10:56:52;;;;;;;13.65;3.80;;;;;;;16.57;100.00;101067.50;4822140;29;20065;-79
2023/10/09 10:59:26;;;;;;;11.70;4.45;;;;;;;16.55;100.00;101055.31;4820915;29;20487;-80
2023/10/09 11:07:06;;;;;;;27.58;5.13;;;;;;;16.75;100.00;101053.13;4834578;29;20082;-79
2023/10/09 11:15:46;;;;;;;5.53;4.75;;;;;;;16.95;100.00;101029.53;4835896;29;20038;-78
2023/10/09 11:18:27;;;;;;;7.60;4.95;;;;;;;17.01;100.00;101028.00;4790775;29;20030;-78
2023/10/09 11:23:38;;;;;;;4.80;4.30;;;;;;;17.09;100.00;101021.81;4833145;29;20347;-78
2023/10/09 11:26:30;;;;;;;10.32;5.10;;;;;;;17.25;100.00;101015.56;4806164;29;20050;-78
2023/10/09 11:32:01;;;;;;;5.57;4.55;;;;;;;17.34;100.00;101013.69;4821061;29;20076;-77
2023/10/09 11:35:10;;;;;;;6.82;4.50;;;;;;;17.37;100.00;101008.00;4805532;29;20050;-78
2023/10/09 11:39:55;;;;;;;5.47;4.68;;;;;;;17.43;100.00;101011.81;4805752;29;20068;-77
2023/10/09 11:42:47;;;;;;;8.63;4.70;;;;;;;17.54;100.00;101007.88;4837877;29;20428;-78
2023/10/09 11:45:37;;;;;;;9.45;6.78;;;;;;;17.81;100.00;101013.72;4820373;29;20034;-78
2023/10/09 11:48:46;;;;;;;6.28;4.47;;;;;;;17.98;100.00;101015.25;4787815;29;20068;-78
2023/10/09 11:51:19;;;;;;;6.85;4.30;;;;;;;18.13;100.00;101005.66;4816308;29;20042;-79
2023/10/09 12:47:37;;;;;;;;;;;;;;;;;;;;;
2023/10/09 12:51:17;;;;;;;6.20;3.08;;;;;;;20.61;100.00;100937.97;4660079;30;20197;-79
2023/10/09 13:03:13;;;;;;;10.27;3.38;;;;;;;21.01;100.00;100928.44;4681076;30;20088;-78
2023/10/09 13:06:11;;;;;;;3.55;2.83;;;;;;;21.03;100.00;100918.31;4680449;30;20045;-78
2023/10/09 13:13:05;;;;;;;7.88;3.50;;;;;;;21.07;100.00;100898.09;4780292;29;20512;-77
2023/10/09 13:15:44;;;;;;;11.43;4.05;;;;;;;21.15;100.00;100897.06;4802040;29;20031;-80
2023/10/09 13:36:48;;;;;;;11.43;4.57;;;;;;;21.69;100.00;100870.22;4760601;30;20058;-79
2023/10/09 13:40:11;;;;;;;;;;;;;;;;;;;;;
2023/10/09 13:53:07;;;;;;;;;;;;;;;;;;;;;
2023/10/09 14:00:49;;;;;;;8.98;3.45;;;;;;;22.11;100.00;100851.09;4676931;30;20141;-79
2023/10/09 14:04:19;;;;;;;;;;;;;;;;;;;;;
2023/10/09 14:07:49;;;;;;;9.43;3.47;;;;;;;22.25;100.00;100856.47;4657185;30;20064;-79
2023/10/09 14:11:13;;;;;;;24.98;13.48;;;;;;;22.26;100.00;100855.41;4686185;30;20062;-79
2023/10/09 14:14:34;;;;;;;25.30;11.18;;;;;;;22.28;100.00;100853.34;4717926;30;20484;-76
2023/10/09 14:17:00;;;;;;;10.43;5.43;;;;;;;22.28;100.00;100853.34;4734117;30;20047;-77
2023/10/09 14:19:26;;;;;;;11.23;4.43;;;;;;;22.22;100.00;100854.19;4777545;29;20058;-76
2023/10/09 14:21:52;;;;;;;16.52;10.38;;;;;;;22.13;100.00;100842.81;4814313;29;20350;-78
2023/10/09 14:24:26;;;;;;;10.60;7.03;;;;;;;22.06;100.00;100849.03;4811582;29;20038;-76
2023/10/09 14:26:56;;;;;;;17.50;6.90;;;;;;;22.01;100.00;100842.66;4802584;29;20122;-76
2023/10/09 14:29:32;;;;;;;15.88;6.20;;;;;;;21.99;100.00;100848.25;4820737;29;20483;-77
2023/10/09 14:32:13;;;;;;;14.70;7.75;;;;;;;22.00;100.00;100846.38;4787917;29;20115;-76
2023/10/09 14:35:12;;;;;;;25.35;14.45;;;;;;;22.06;100.00;100862.50;4798665;29;20122;-77
2023/10/09 14:37:47;;;;;;;16.17;6.30;;;;;;;21.97;100.00;100844.94;4793486;29;20472;-76
2023/10/09 14:40:13;;;;;;;10.73;4.72;;;;;;;21.92;100.00;100847.41;4804907;29;20087;-77
2023/10/09 14:42:43;;;;;;;17.23;4.00;;;;;;;21.86;100.00;100832.13;4823283;29;20045;-75
2023/10/09 14:45:15;;;;;;;17.42;7.55;;;;;;;21.86;100.00;100841.03;4822381;29;20042;-75
2023/10/09 14:47:41;;;;;;;12.77;4.60;;;;;;;21.82;100.00;100826.31;4822218;29;20034;-77
2023/10/09 14:50:09;;;;;;;10.38;4.05;;;;;;;21.75;100.00;100822.81;4810571;29;20119;-76
2023/10/09 14:52:38;;;;;;;14.55;4.32;;;;;;;21.73;100.00;100824.88;4837568;29;20604;-83
2023/10/09 14:55:05;;;;;;;10.63;2.60;;;;;;;21.66;100.00;100819.53;4805352;29;20407;-83
2023/10/09 14:57:33;;;;;;;12.05;3.38;;;;;;;21.59;100.00;100819.53;4833391;29;20141;-84
2023/10/09 15:00:13;;;;;;;10.55;3.28;;;;;;;21.63;100.00;100820.75;4819937;29;20041;-82
2023/10/09 15:02:42;;;;;;;23.00;5.63;;;;;;;21.58;100.00;100806.28;4804262;29;20107;-83
2023/10/09 15:05:11;;;;;;;15.05;2.90;;;;;;;21.58;100.00;100814.34;4790321;29;20038;-84
2023/10/09 15:07:40;;;;;;;19.35;8.07;;;;;;;21.59;100.00;100814.13;4830078;29;20122;-85
2023/10/09 15:10:09;;;;;;;39.03;19.10;;;;;;;21.58;100.00;100804.41;4806814;29;20038;-82
2023/10/09 15:12:39;;;;;;;10.27;3.33;;;;;;;21.55;100.00;100794.91;4807813;29;20034;-84
2023/10/09 15:15:13;;;;;;;12.13;2.92;;;;;;;21.57;100.00;100794.69;4800171;29;20038;-83
2023/10/09 15:17:47;;;;;;;18.25;6.38;;;;;;;21.51;100.00;100787.47;4820935;29;20046;-83
2023/10/09 15:20:16;;;;;;;20.95;3.22;;;;;;;21.48;100.00;100798.63;4818971;29;20046;-83
2023/10/09 15:22:42;;;;;;;12.93;3.55;;;;;;;21.47;100.00;100799.69;4807134;29;20055;-89
2023/10/09 15:25:12;;;;;;;12.10;4.38;;;;;;;21.48;100.00;100804.00;4799348;29;20046;-88
2023/10/09 15:27:50;;;;;;;15.70;3.88;;;;;;;21.51;100.00;100795.53;4801040;29;20046;-83
2023/10/09 15:30:16;;;;;;;12.50;3.28;;;;;;;21.52;100.00;100789.94;4805058;29;20038;-79
2023/10/09 15:32:43;;;;;;;8.35;3.63;;;;;;;21.58;100.00;100796.31;4820717;29;20038;-84
2023/10/09 15:35:10;;;;;;;13.07;6.05;;;;;;;21.57;100.00;100792.00;4802441;29;20043;-84
2023/10/09 15:37:41;;;;;;;11.77;4.45;;;;;;;21.60;100.00;100788.03;4808303;29;20049;-86
2023/10/09 15:40:18;;;;;;;19.05;11.48;;;;;;;21.54;100.00;100789.72;4804716;29;20514;-85
2023/10/09 15:42:49;;;;;;;28.92;14.13;;;;;;;21.50;100.00;100799.25;4818956;29;20038;-84
2023/10/09 15:45:35;;;;;;;18.77;8.90;;;;;;;21.50;100.00;100799.25;4817549;29;20034;-86
2023/10/09 15:48:21;;;;;;;26.08;13.15;;;;;;;21.47;100.00;100797.00;4819370;29;20069;-85
2023/10/09 15:51:35;;;;;;;;;;;;;;;;;;;;;
2023/10/09 15:54:40;;;;;;;26.48;15.05;;;;;;;21.47;100.00;100786.22;4817659;29;20129;-85
2023/10/09 15:58:22;;;;;;;16.60;5.10;;;;;;;21.44;100.00;100777.53;4779369;29;20047;-86
2023/10/09 16:01:08;;;;;;;;;;;;;;;21.34;100.00;100784.38;4774730;29;20047;-86
2023/10/09 16:04:13;;;;;;;23.58;12.80;;;;;;;21.40;100.00;100787.06;4788785;29;20075;-86
2023/10/09 16:06:59;;;;;;;16.08;8.25;;;;;;;21.34;100.00;100789.75;4777898;29;20460;-84
2023/10/09 16:13:47;;;;;;;16.30;7.40;;;;;;;21.26;100.00;100791.59;4782722;29;20212;-85
2023/10/09 16:24:18;;;;;;;10.27;4.90;;;;;;;21.06;100.00;100787.06;4779917;29;20034;-86
2023/10/09 16:28:02;;;;;;;7.30;4.28;;;;;;;21.02;100.00;100788.50;4776153;29;20043;-86
2023/10/09 16:31:18;;;;;;;16.45;11.13;;;;;;;21.02;100.00;100790.38;4790075;29;20046;-87
2023/10/09 16:34:29;;;;;;;10.02;4.88;;;;;;;21.01;100.00;100791.38;4806742;29;20045;-86
2023/10/09 16:37:24;;;;;;;;;;;;;;;20.82;100.00;100778.53;4796371;29;20059;-85
2023/10/09 16:41:06;;;;;;;;;;;;;;;;;;;;;
2023/10/09 16:44:16;;;;;;;12.25;5.05;;;;;;;20.65;100.00;100763.84;4781920;29;20039;-87
2023/10/09 16:46:59;;;;;;;11.68;5.13;;;;;;;20.63;100.00;100774.78;4788800;29;20035;-86
2023/10/09 16:49:51;;;;;;;13.43;3.95;;;;;;;20.51;100.00;100785.31;4803130;29;20047;-86
2023/10/09 16:52:46;;;;;;;8.23;3.40;;;;;;;20.39;100.00;100781.53;4789803;29;20046;-86
2023/10/09 16:55:23;;;;;;;6.47;2.60;;;;;;;20.21;100.00;100782.91;4771187;29;20452;-86
2023/10/09 16:57:51;;;;;;;7.28;3.00;;;;;;;20.17;100.00;100790.56;4802260;29;20062;-86
2023/10/09 17:00:28;;;;;;;8.00;3.00;;;;;;;20.09;100.00;100788.03;4771717;29;20473;-86
2023/10/09 17:03:06;;;;;;;8.77;3.85;;;;;;;20.05;100.00;100790.28;4790255;29;20131;-86
2023/10/09 17:05:33;;;;;;;10.27;2.97;;;;;;;20.00;100.00;100798.09;4783924;29;20042;-87
2023/10/09 17:08:00;;;;;;;10.13;3.25;;;;;;;19.92;100.00;100804.41;4786849;29;20043;-85
2023/10/09 17:10:27;;;;;;;10.23;4.13;;;;;;;19.81;100.00;100803.13;4772177;29;20397;-80
2023/10/09 17:12:53;;;;;;;9.38;3.58;;;;;;;19.75;100.00;100797.75;4788623;29;20043;-87
2023/10/09 17:15:19;;;;;;;8.02;3.63;;;;;;;19.69;100.00;100797.50;4777823;29;20122;-87
2023/10/09 17:17:49;;;;;;;8.63;3.58;;;;;;;19.66;100.00;100795.22;4772828;29;20049;-86
2023/10/09 17:20:21;;;;;;;8.20;3.60;;;;;;;19.65;100.00;100792.72;4772508;29;20608;-86
2023/10/09 17:22:48;;;;;;;12.38;3.70;;;;;;;19.54;100.00;100791.41;4780840;29;20034;-86
2023/10/09 17:25:16;;;;;;;11.02;3.10;;;;;;;19.47;100.00;100788.69;4806445;29;20030;-87
2023/10/09 17:27:43;;;;;;;10.45;3.97;;;;;;;19.41;100.00;100784.94;4802116;29;20092;-87
2023/10/09 17:30:10;;;;;;;10.52;3.78;;;;;;;19.33;100.00;100779.72;4779780;29;20091;-87
2023/10/09 17:32:37;;;;;;;11.30;4.32;;;;;;;19.27;100.00;100777.81;4772258;29;20046;-87
2023/10/09 17:35:09;;;;;;;13.65;4.30;;;;;;;19.21;100.00;100782.91;4792901;29;20043;-87